Airfield :
LOGIN :

Register | Disclaimer

   EN    FR    IT 

 










Legend :    VFR   Marginal VFR   IFR   Intensive IFR   Very Intensive IFR
Visi :
Ceiling :
>= 8 km
>= 3000ft
5 to 8 km
1000 to 3000 ft
1500m to 5 km
500 to 1000 ft
800 to 1500m
200 to 500 ft
< 800m
< 200 ft
Symbols :   Thunderstorms  Fog  Heavy snow  Heavy precipitations  Wind > 20 kt
SIGMETs :     Misc.  Thunderstorms  Icing  Turbulence  Mountain Waves  Volcanic Ashes






- Airport Elevation : 909 ft
- IATA code : KSF


EDVK - Kassel Calden

CURRENT METAR :
  • 292350Z AUTO 12003KT 090V160 9999 // FEW004/// BKN068/// BKN120/// 12/12 Q1007

EXPIRED METARs :
  • 292320Z AUTO 15003KT 9999 // FEW004/// 12/12 Q1007
  • 292250Z AUTO 16004KT 9999 // SCT055/// BKN066/// 13/12 Q1008
  • 292220Z AUTO 15004KT 9999 // FEW003/// BKN052/// BKN130/// 13/13 Q1008
  • 292150Z AUTO 15005KT 9999 // FEW003/// SCT052/// BKN078/// 13/13 Q1008
  • 292120Z AUTO VRB02KT 9999 // BKN083/// 13/12 Q1008
  • 292050Z AUTO 13003KT 9999 // FEW052/// SCT084/// 13/12 Q1009
  • 292020Z AUTO 24001KT 9999 // BKN080/// 13/12 Q1009
  • 291950Z AUTO 24003KT 9999 // FEW024/// 13/12 Q1009
  • 291920Z VRB02KT 9999 -RA FEW012 SCT035 13/12 Q1009

TAF TAF EDVK
Valid from the 29 at 18:00 until the 30 at 03:00 UTC


291700Z 2918/3003 21007KT 9999 SCT025
TEMPO 2918/2924 SHRA BKN020CB
PROB30
TEMPO 2918/2921 21015G25KT 4500 TSRA BKN012
TEMPO 3000/3003 4000 RA BKN014



MET'MAP, your aeronautical weather chart ! - Copyright ORBIFLY December 2007 - Disclaimer

ORBIFLY MET'MAP TEAM :

Programming & Development : Alexandra Zaïnal
Original concept : Baudouin d'Aumeries
Technical & hardware support : Manuel Goepfert
Assistance : Marc-Olivier Méhu




SOURCES & CREDITS :

   NOAA